Time;durP1;ratioP1;P1;durP2;ratioP2;P2;SDS_P1;SDS_P2;PMS_P1;PMS_P2;Temp;Humidity;BMP_temperature;BMP_pressure;BME280_temperature;BME280_humidity;BME280_pressure;Samples;Min_cycle;Max_cycle;Signal;HPM_P1;HPM_P2
2023/06/16 00:00:43;;;;;;;5.18;1.73;;;;;;;17.94;70.42;101612.56;5030324;28;20050;-67
2023/06/16 00:03:15;;;;;;;4.93;1.85;;;;;;;17.96;70.10;101616.00;5042600;28;20128;-67
2023/06/16 00:05:46;;;;;;;6.60;1.92;;;;;;;17.84;70.28;101620.97;5030481;28;20108;-67
2023/06/16 00:08:14;;;;;;;6.57;2.28;;;;;;;17.70;70.92;101625.31;5037006;28;20075;-67
2023/06/16 00:10:42;;;;;;;5.30;2.03;;;;;;;17.47;76.62;101616.78;5033794;28;20045;-68
2023/06/16 00:13:09;;;;;;;6.38;2.15;;;;;;;17.42;73.75;101605.56;5026642;28;20567;-68
2023/06/16 00:15:36;;;;;;;6.50;2.15;;;;;;;17.40;72.01;101623.34;5029667;28;20053;-67
2023/06/16 00:18:03;;;;;;;7.13;1.95;;;;;;;17.37;74.03;101612.91;5029960;28;20754;-67
2023/06/16 00:20:32;;;;;;;6.43;2.45;;;;;;;17.45;76.13;101618.66;5025639;28;20133;-68
2023/06/16 00:23:00;;;;;;;7.93;2.00;;;;;;;17.33;76.95;101614.00;5026134;28;20081;-67
2023/06/16 00:25:30;;;;;;;6.68;2.08;;;;;;;17.24;78.03;101605.59;5028350;28;20406;-67
2023/06/16 00:27:56;;;;;;;5.68;1.95;;;;;;;17.22;77.92;101599.53;5029743;28;20068;-67
2023/06/16 00:30:23;;;;;;;7.32;2.05;;;;;;;17.08;80.01;101604.69;5027495;28;20049;-67
2023/06/16 00:32:50;;;;;;;8.63;2.30;;;;;;;16.91;83.65;101607.31;5028928;28;20053;-67
2023/06/16 00:35:17;;;;;;;6.95;2.10;;;;;;;16.92;84.01;101603.75;5026733;28;20049;-67
2023/06/16 00:37:44;;;;;;;6.32;2.17;;;;;;;17.03;86.00;101604.94;5030285;28;20390;-67
2023/06/16 00:40:11;;;;;;;7.55;2.28;;;;;;;17.05;86.95;101611.00;5029533;28;20052;-67
2023/06/16 00:42:37;;;;;;;7.72;2.22;;;;;;;17.08;87.31;101602.88;5025330;28;20053;-67
2023/06/16 00:45:05;;;;;;;6.53;1.95;;;;;;;16.98;91.27;101596.38;5027992;28;20064;-67
2023/06/16 00:47:31;;;;;;;7.07;2.38;;;;;;;17.13;91.82;101596.53;5028752;28;20052;-67
2023/06/16 00:49:58;;;;;;;9.55;2.45;;;;;;;17.01;94.09;101598.00;5028634;28;20599;-66
2023/06/16 00:52:29;;;;;;;8.93;2.47;;;;;;;16.87;97.38;101603.97;5029932;28;20559;-67
2023/06/16 00:54:57;;;;;;;6.68;2.13;;;;;;;16.76;99.60;101591.25;5029129;28;20144;-67
2023/06/16 00:57:24;;;;;;;7.10;2.47;;;;;;;16.88;97.50;101590.69;5029477;28;20053;-67
2023/06/16 00:59:50;;;;;;;4.43;1.70;;;;;;;16.97;96.78;101593.81;5029233;28;20072;-67
2023/06/16 01:02:18;;;;;;;6.32;2.05;;;;;;;16.98;98.08;101587.56;5029783;28;20054;-67
2023/06/16 01:04:47;;;;;;;6.60;2.33;;;;;;;16.99;98.10;101591.94;5028687;28;20049;-67
2023/06/16 01:07:25;;;;;;;4.68;1.70;;;;;;;16.85;98.76;101577.59;5028872;28;20465;-67
2023/06/16 01:10:07;;;;;;;6.22;1.90;;;;;;;16.80;98.38;101584.91;5026479;28;20038;-67
2023/06/16 01:12:58;;;;;;;5.10;1.80;;;;;;;16.81;97.46;101570.72;5023184;28;20048;-67
2023/06/16 01:15:27;;;;;;;8.07;2.58;;;;;;;16.65;99.56;101585.66;5045352;28;20057;-68
2023/06/16 01:17:59;;;;;;;7.20;2.30;;;;;;;16.54;100.00;101569.47;5030217;28;20594;-65
2023/06/16 01:20:29;;;;;;;7.15;2.42;;;;;;;16.48;98.94;101583.84;5033181;28;20152;-68
2023/06/16 01:23:20;;;;;;;6.43;2.20;;;;;;;16.49;100.00;101580.28;5032450;28;20564;-67
2023/06/16 01:25:49;;;;;;;8.38;2.40;;;;;;;16.51;100.00;101575.78;5030230;28;20564;-68
2023/06/16 01:28:18;;;;;;;7.15;2.30;;;;;;;16.39;100.00;101573.72;5038107;28;20057;-68
2023/06/16 01:30:50;;;;;;;7.95;2.45;;;;;;;16.10;100.00;101573.34;5046914;28;21185;-67
2023/06/16 01:33:23;;;;;;;5.32;2.13;;;;;;;15.93;100.00;101569.69;5037111;28;20494;-67
2023/06/16 01:35:52;;;;;;;;;;;;;;;15.88;100.00;101571.72;5041902;28;20132;-67
2023/06/16 01:38:21;;;;;;;6.10;2.10;;;;;;;15.72;100.00;101555.69;5032693;28;20396;-67
2023/06/16 01:40:51;;;;;;;7.07;2.35;;;;;;;16.03;100.00;101558.72;5027827;28;20128;-67
2023/06/16 01:43:20;;;;;;;6.40;2.20;;;;;;;15.89;100.00;101556.72;5030096;28;20058;-67
2023/06/16 01:45:49;;;;;;;6.60;2.50;;;;;;;15.87;100.00;101555.94;5045730;28;20099;-67
2023/06/16 01:48:17;;;;;;;6.93;2.10;;;;;;;15.73;100.00;101562.66;5040290;28;20391;-67
2023/06/16 01:50:44;;;;;;;9.30;2.50;;;;;;;15.70;100.00;101551.41;5031661;28;20069;-67
2023/06/16 01:53:11;;;;;;;9.57;2.67;;;;;;;15.64;100.00;101551.69;5045068;28;20208;-67
2023/06/16 01:55:38;;;;;;;5.78;1.98;;;;;;;15.71;100.00;101550.47;5034220;28;20052;-67
2023/06/16 01:58:05;;;;;;;6.88;2.22;;;;;;;15.57;100.00;101535.28;5031962;28;20071;-67
2023/06/16 02:00:36;;;;;;;7.20;2.25;;;;;;;15.68;100.00;101548.81;5038581;28;20132;-67
2023/06/16 02:03:11;;;;;;;5.93;2.10;;;;;;;15.68;100.00;101547.97;5026498;28;20451;-65
2023/06/16 02:05:42;;;;;;;8.27;2.67;;;;;;;15.53;100.00;101547.75;5037307;28;20095;-67
2023/06/16 02:08:10;;;;;;;6.88;2.53;;;;;;;15.52;100.00;101550.47;5039685;28;20136;-66
2023/06/16 02:10:38;;;;;;;6.18;2.10;;;;;;;15.35;100.00;101554.72;5052230;28;20040;-67
2023/06/16 02:13:05;;;;;;;6.78;2.20;;;;;;;15.34;100.00;101550.34;5043049;28;20055;-68
2023/06/16 02:15:32;;;;;;;8.05;2.20;;;;;;;15.41;100.00;101547.47;5035587;28;20051;-67
2023/06/16 02:17:59;;;;;;;6.55;2.22;;;;;;;15.38;100.00;101546.66;5036777;28;20053;-67
2023/06/16 02:20:26;;;;;;;6.47;2.28;;;;;;;15.29;100.00;101546.22;5032852;28;20493;-67
2023/06/16 02:22:53;;;;;;;6.38;2.20;;;;;;;15.43;100.00;101553.53;5032020;28;20132;-67
2023/06/16 02:25:20;;;;;;;8.48;2.53;;;;;;;15.44;100.00;101550.81;5025980;28;20494;-67
2023/06/16 02:27:47;;;;;;;7.22;2.15;;;;;;;15.32;100.00;101548.72;5031406;28;20059;-67
2023/06/16 02:30:15;;;;;;;7.30;2.63;;;;;;;15.28;100.00;101555.03;5034376;28;20471;-67
2023/06/16 02:32:43;;;;;;;7.53;2.67;;;;;;;15.19;100.00;101545.75;5030927;28;20576;-67
2023/06/16 02:35:26;;;;;;;8.48;2.40;;;;;;;15.32;100.00;101554.00;5044218;28;20064;-67
2023/06/16 02:37:53;;;;;;;6.45;2.42;;;;;;;15.36;100.00;101550.28;5034269;28;20443;-67
2023/06/16 02:40:20;;;;;;;8.00;2.50;;;;;;;15.32;100.00;101548.72;5044374;28;20140;-67
2023/06/16 02:42:48;;;;;;;8.00;2.85;;;;;;;15.24;100.00;101548.19;5032844;28;20553;-67
2023/06/16 02:45:15;;;;;;;10.63;2.70;;;;;;;14.94;100.00;101535.41;5037412;28;20049;-67
2023/06/16 02:47:43;;;;;;;7.55;3.00;;;;;;;14.86;100.00;101548.09;5045852;28;20053;-67
2023/06/16 02:50:10;;;;;;;9.20;3.03;;;;;;;14.94;100.00;101545.97;5036472;28;20144;-67
2023/06/16 02:52:41;;;;;;;8.57;2.88;;;;;;;14.91;100.00;101536.44;5033407;28;20137;-68
2023/06/16 02:55:13;;;;;;;8.10;2.92;;;;;;;14.99;100.00;101544.00;5037748;28;20397;-67
2023/06/16 02:57:39;;;;;;;7.20;2.70;;;;;;;14.94;100.00;101543.34;5035603;28;20073;-68
2023/06/16 03:00:10;;;;;;;7.40;2.50;;;;;;;14.97;100.00;101538.78;5036182;28;20154;-67
2023/06/16 03:02:37;;;;;;;9.57;2.50;;;;;;;15.02;100.00;101541.22;5030480;28;20092;-68
2023/06/16 03:05:04;;;;;;;8.63;2.50;;;;;;;14.92;100.00;101546.03;5040500;28;20041;-68
2023/06/16 03:07:34;;;;;;;8.23;2.97;;;;;;;14.77;100.00;101536.16;5047663;28;20413;-67
2023/06/16 03:10:07;;;;;;;9.07;2.58;;;;;;;14.74;100.00;101541.56;5048271;28;20072;-67
2023/06/16 03:12:33;;;;;;;8.40;2.97;;;;;;;14.71;100.00;101516.16;5047105;28;20053;-67
2023/06/16 03:15:00;;;;;;;9.88;3.08;;;;;;;14.72;100.00;101541.63;5036557;28;20207;-68
2023/06/16 03:17:27;;;;;;;10.30;3.17;;;;;;;14.70;100.00;101535.56;5047388;28;20053;-67
2023/06/16 03:19:54;;;;;;;8.38;3.03;;;;;;;14.50;100.00;101541.63;5035380;28;20427;-68
2023/06/16 03:22:21;;;;;;;9.48;4.05;;;;;;;14.50;100.00;101538.13;5031192;28;20041;-67
2023/06/16 03:24:47;;;;;;;8.70;3.60;;;;;;;14.38;100.00;101544.78;5043184;28;20060;-67
2023/06/16 03:27:15;;;;;;;8.23;3.47;;;;;;;14.40;100.00;101543.78;5040405;28;20114;-67
2023/06/16 03:29:43;;;;;;;7.55;2.88;;;;;;;14.36;100.00;101536.94;5039244;28;20126;-67
2023/06/16 03:32:10;;;;;;;9.35;3.20;;;;;;;14.28;100.00;101528.47;5034800;28;20487;-67
2023/06/16 03:34:36;;;;;;;8.73;3.13;;;;;;;14.29;100.00;101531.94;5036250;28;20242;-67
2023/06/16 03:37:03;;;;;;;8.45;3.38;;;;;;;14.20;100.00;101527.91;5036901;28;20133;-67
2023/06/16 03:39:30;;;;;;;7.95;3.25;;;;;;;14.28;100.00;101528.47;5031276;28;20136;-67
2023/06/16 03:41:57;;;;;;;10.18;3.65;;;;;;;14.24;100.00;101524.25;5026006;28;20048;-68
2023/06/16 03:44:24;;;;;;;8.30;3.15;;;;;;;14.29;100.00;101527.56;5025563;28;20140;-68
2023/06/16 03:46:50;;;;;;;8.05;2.97;;;;;;;14.23;100.00;101520.75;5044234;28;20060;-67
2023/06/16 03:49:17;;;;;;;7.55;2.67;;;;;;;14.33;100.00;101533.56;5046397;28;20137;-67
2023/06/16 03:51:44;;;;;;;9.07;3.33;;;;;;;14.31;100.00;101530.97;5033172;28;20556;-67
2023/06/16 03:54:11;;;;;;;9.80;3.72;;;;;;;14.28;100.00;101528.47;5023880;28;20686;-67
2023/06/16 03:56:39;;;;;;;10.65;3.20;;;;;;;14.18;100.00;101535.00;5016848;28;20191;-67
2023/06/16 03:59:06;;;;;;;7.78;2.72;;;;;;;14.14;100.00;101533.44;5043286;28;20083;-68
2023/06/16 04:01:32;;;;;;;7.30;3.03;;;;;;;14.14;100.00;101536.06;5038150;28;20585;-67
2023/06/16 04:03:59;;;;;;;9.07;3.45;;;;;;;14.04;100.00;101528.53;5024112;28;20132;-67
2023/06/16 04:06:26;;;;;;;9.77;3.55;;;;;;;14.05;100.00;101521.50;5041152;28;20468;-67
2023/06/16 04:08:56;;;;;;;9.00;3.60;;;;;;;14.18;100.00;101528.00;5035691;28;20052;-67
2023/06/16 04:11:23;;;;;;;8.48;3.50;;;;;;;14.57;100.00;101518.50;5031258;28;20067;-67
2023/06/16 04:13:50;;;;;;;9.02;3.25;;;;;;;15.37;100.00;101520.34;5028862;28;20060;-67
2023/06/16 04:16:17;;;;;;;12.25;3.88;;;;;;;15.96;100.00;101520.31;5022989;28;20072;-67
2023/06/16 04:18:47;;;;;;;8.10;3.28;;;;;;;16.13;100.00;101515.09;5036032;28;20055;-67
2023/06/16 04:21:15;;;;;;;10.10;3.60;;;;;;;16.41;100.00;101524.28;5046514;28;20096;-67
2023/06/16 04:23:42;;;;;;;9.75;3.25;;;;;;;16.86;100.00;101526.44;5033932;28;20056;-67
2023/06/16 04:26:08;;;;;;;8.85;3.40;;;;;;;17.24;100.00;101512.97;5050167;28;20706;-67
2023/06/16 04:28:44;;;;;;;9.32;3.58;;;;;;;17.64;100.00;101520.56;5028811;28;20461;-68
2023/06/16 04:31:12;;;;;;;9.52;3.40;;;;;;;17.67;100.00;101523.06;5018408;28;20083;-68
2023/06/16 04:33:42;;;;;;;17.30;3.60;;;;;;;17.64;100.00;101509.97;5028848;28;20057;-68
2023/06/16 04:36:09;;;;;;;10.80;3.97;;;;;;;17.97;100.00;101509.94;5031149;28;20080;-67
2023/06/16 04:38:35;;;;;;;9.13;3.70;;;;;;;18.16;100.00;101512.38;5041605;28;20059;-68
2023/06/16 04:41:04;;;;;;;9.30;3.67;;;;;;;18.16;100.00;101499.13;5048884;28;20557;-68
2023/06/16 04:43:31;;;;;;;8.63;3.58;;;;;;;18.52;100.00;101515.63;5030720;28;20041;-68
2023/06/16 04:45:58;;;;;;;9.25;3.63;;;;;;;18.47;100.00;101513.25;5028298;28;20406;-68
2023/06/16 04:48:25;;;;;;;10.52;3.53;;;;;;;18.77;100.00;101507.09;5038986;28;20475;-68
2023/06/16 04:50:53;;;;;;;8.77;3.33;;;;;;;19.08;96.10;101508.75;5039749;28;20081;-68
2023/06/16 04:53:20;;;;;;;8.27;3.35;;;;;;;19.21;92.47;101511.53;5029094;28;20042;-67
2023/06/16 04:55:47;;;;;;;10.38;3.65;;;;;;;19.12;92.15;101499.66;5029874;28;20049;-67
2023/06/16 04:58:14;;;;;;;8.07;2.58;;;;;;;18.36;98.83;101511.25;5037148;28;20470;-68
2023/06/16 05:00:40;;;;;;;6.53;2.38;;;;;;;17.59;100.00;101517.31;5045229;28;20147;-68
2023/06/16 05:03:07;;;;;;;8.68;3.45;;;;;;;17.23;100.00;101506.00;5027185;28;20045;-67
2023/06/16 05:05:34;;;;;;;7.82;2.72;;;;;;;17.13;100.00;101503.91;5030663;28;20056;-68
2023/06/16 05:08:01;;;;;;;9.02;3.90;;;;;;;17.06;100.00;101508.66;5040832;28;20053;-67
2023/06/16 05:10:28;;;;;;;8.55;4.00;;;;;;;16.67;100.00;101502.69;5046113;28;20274;-68
2023/06/16 05:12:57;;;;;;;9.40;3.67;;;;;;;16.71;100.00;101516.59;5043186;28;20125;-67
2023/06/16 05:15:24;;;;;;;9.65;3.67;;;;;;;16.70;100.00;101509.63;5038984;28;20120;-67
2023/06/16 05:17:51;;;;;;;7.93;3.17;;;;;;;16.83;100.00;101515.13;5040507;28;20115;-67
2023/06/16 05:20:18;;;;;;;9.20;3.30;;;;;;;17.49;100.00;101498.41;5052265;28;20053;-67
2023/06/16 05:22:45;;;;;;;7.88;3.15;;;;;;;18.71;100.00;101508.28;5041121;28;20049;-67
2023/06/16 05:25:12;;;;;;;7.63;2.70;;;;;;;19.14;100.00;101504.84;5040626;28;20041;-67
2023/06/16 05:27:39;;;;;;;7.43;2.67;;;;;;;19.40;99.60;101505.91;5053678;28;20099;-67
2023/06/16 05:30:06;;;;;;;10.02;2.97;;;;;;;19.53;99.25;101511.31;5052476;28;20541;-67
2023/06/16 05:32:33;;;;;;;9.13;3.13;;;;;;;19.72;96.51;101505.66;5034929;28;20045;-68
2023/06/16 05:34:59;;;;;;;7.70;2.75;;;;;;;20.08;92.89;101501.63;5028624;28;20104;-67
2023/06/16 05:37:28;;;;;;;8.50;2.80;;;;;;;19.81;95.77;101496.28;5043782;28;20045;-67
2023/06/16 05:39:54;;;;;;;9.32;3.05;;;;;;;20.01;90.45;101494.97;5030861;28;20062;-67
2023/06/16 05:42:21;;;;;;;10.35;3.13;;;;;;;20.21;89.61;101501.66;5031985;28;20530;-68
2023/06/16 05:44:48;;;;;;;7.43;3.20;;;;;;;20.27;87.95;101495.94;5030503;28;20455;-67
2023/06/16 05:47:15;;;;;;;7.28;2.70;;;;;;;20.67;87.93;101499.44;5025500;28;20049;-67
2023/06/16 05:49:42;;;;;;;8.63;3.35;;;;;;;20.51;88.39;101495.25;5031746;28;20358;-67
2023/06/16 05:52:08;;;;;;;6.22;2.60;;;;;;;20.69;85.31;101501.16;5023688;28;20080;-67
2023/06/16 05:54:35;;;;;;;8.70;2.75;;;;;;;20.87;85.60;101502.56;5027997;28;20048;-67
2023/06/16 05:57:02;;;;;;;8.35;3.15;;;;;;;20.68;85.76;101502.94;5023194;28;20140;-67
2023/06/16 05:59:29;;;;;;;7.55;3.15;;;;;;;20.82;86.49;101500.22;5024426;28;20053;-67
2023/06/16 06:01:56;;;;;;;8.52;3.42;;;;;;;21.23;83.85;101501.81;5024144;28;20042;-67
2023/06/16 06:04:27;;;;;;;10.20;3.50;;;;;;;21.53;82.57;101495.28;5027948;28;20842;-68
2023/06/16 06:06:54;;;;;;;7.32;2.90;;;;;;;21.84;86.46;101500.22;5035483;28;20054;-68
2023/06/16 06:09:21;;;;;;;7.80;3.15;;;;;;;22.04;81.39;101498.72;5025837;28;20052;-68
2023/06/16 06:11:49;;;;;;;8.48;3.10;;;;;;;22.38;77.66;101494.41;5043260;28;20052;-68
2023/06/16 06:14:16;;;;;;;7.57;3.05;;;;;;;22.36;75.29;101502.56;5027557;28;20051;-68
2023/06/16 06:16:43;;;;;;;8.23;3.10;;;;;;;21.95;78.93;101494.94;5016407;28;20056;-68
2023/06/16 06:19:10;;;;;;;9.15;3.28;;;;;;;22.26;72.97;101493.50;5039989;28;20115;-67
2023/06/16 06:21:38;;;;;;;8.00;2.60;;;;;;;22.62;76.64;101497.03;5022505;28;20057;-68
2023/06/16 06:24:06;;;;;;;9.07;3.00;;;;;;;22.49;72.37;101489.13;5025038;28;20462;-68
2023/06/16 06:26:33;;;;;;;12.35;3.97;;;;;;;21.76;76.33;101498.94;5023612;28;20072;-68
2023/06/16 06:29:00;;;;;;;11.40;4.22;;;;;;;21.82;77.12;101499.47;5029945;28;20144;-68
2023/06/16 06:31:27;;;;;;;9.65;3.50;;;;;;;21.88;81.91;101499.00;5029776;28;20145;-68
2023/06/16 06:33:54;;;;;;;9.73;3.45;;;;;;;22.69;77.66;101489.41;5026024;28;20152;-69
2023/06/16 06:36:28;;;;;;;11.80;3.10;;;;;;;23.13;73.57;101493.13;5030201;28;20132;-69
2023/06/16 06:38:55;;;;;;;8.70;3.10;;;;;;;23.18;70.96;101493.63;5030444;28;20147;-69
2023/06/16 06:41:23;;;;;;;10.00;3.05;;;;;;;23.31;70.47;101502.34;5022665;28;20409;-69
2023/06/16 06:43:52;;;;;;;8.00;2.97;;;;;;;23.28;70.04;101501.75;5020921;28;20080;-69
2023/06/16 06:46:20;;;;;;;7.75;2.80;;;;;;;23.55;69.74;101503.19;5030172;28;20108;-69
2023/06/16 06:48:47;;;;;;;8.60;3.00;;;;;;;24.09;66.92;101496.16;5031085;28;20073;-68
2023/06/16 06:51:14;;;;;;;8.02;2.75;;;;;;;23.30;68.33;101498.00;5031932;28;20079;-69
2023/06/16 06:53:42;;;;;;;8.98;3.33;;;;;;;22.83;72.58;101499.88;5028614;28;20100;-69
2023/06/16 06:56:09;;;;;;;9.85;3.60;;;;;;;22.87;73.49;101509.34;5030367;28;20045;-69
2023/06/16 06:58:36;;;;;;;10.98;2.85;;;;;;;23.02;75.06;101509.09;5027287;28;20049;-69
2023/06/16 07:01:02;;;;;;;8.20;3.22;;;;;;;22.94;75.51;101502.53;5024235;28;20054;-68
2023/06/16 07:03:29;;;;;;;9.23;2.97;;;;;;;23.57;70.96;101507.44;5026338;28;20489;-69
2023/06/16 07:05:56;;;;;;;9.93;3.10;;;;;;;23.65;70.09;101506.81;5018759;28;20523;-69
2023/06/16 07:08:23;;;;;;;8.10;2.70;;;;;;;24.25;67.06;101508.13;5020396;28;20137;-68
2023/06/16 07:10:50;;;;;;;15.70;3.10;;;;;;;24.69;62.91;101509.91;5028586;28;20399;-69
2023/06/16 07:13:16;;;;;;;8.55;2.30;;;;;;;25.43;59.23;101512.41;5025102;28;20037;-69
2023/06/16 07:15:43;;;;;;;8.07;2.83;;;;;;;25.01;57.79;101523.19;5019572;28;20045;-69
2023/06/16 07:18:10;;;;;;;8.90;3.28;;;;;;;25.13;55.10;101516.75;5025096;28;20054;-68
2023/06/16 07:20:37;;;;;;;7.38;2.58;;;;;;;25.74;52.08;101515.03;5022268;28;20385;-68
2023/06/16 07:23:04;;;;;;;7.68;2.58;;;;;;;25.90;50.46;101507.28;5022729;28;20045;-68
2023/06/16 07:25:32;;;;;;;8.00;2.15;;;;;;;26.10;48.24;101510.00;5020260;28;20408;-68
2023/06/16 07:27:59;;;;;;;7.43;2.42;;;;;;;25.32;49.52;101505.31;5022228;28;20049;-69
2023/06/16 07:30:26;;;;;;;5.30;1.95;;;;;;;25.86;49.70;101510.41;5022660;28;20054;-69
2023/06/16 07:32:53;;;;;;;6.57;2.00;;;;;;;26.10;47.73;101504.66;5029627;28;20055;-69
2023/06/16 07:35:20;;;;;;;8.60;3.03;;;;;;;25.54;49.03;101514.13;5022694;28;20041;-68
2023/06/16 07:37:47;;;;;;;6.45;2.35;;;;;;;25.98;49.48;101503.94;5027358;28;20058;-68
2023/06/16 07:40:14;;;;;;;8.77;2.80;;;;;;;26.93;47.99;101515.72;5029104;28;20046;-68
2023/06/16 07:42:45;;;;;;;8.50;2.40;;;;;;;25.94;47.98;101502.50;5025256;28;20042;-68
2023/06/16 07:45:13;;;;;;;7.50;2.60;;;;;;;26.02;48.18;101520.63;5023190;28;20064;-68
2023/06/16 07:47:41;;;;;;;8.40;2.60;;;;;;;26.71;46.50;101520.47;5036321;28;20129;-69
2023/06/16 07:50:10;;;;;;;9.00;2.67;;;;;;;26.21;47.76;101506.38;5025035;28;20060;-69
2023/06/16 07:52:38;;;;;;;9.63;2.58;;;;;;;26.98;46.21;101520.69;5026105;28;20049;-69
2023/06/16 07:55:06;;;;;;;8.45;2.47;;;;;;;26.49;46.78;101516.22;5018522;28;20137;-69
2023/06/16 07:57:33;;;;;;;6.30;1.95;;;;;;;26.77;46.05;101528.94;5014958;28;20145;-69
2023/06/16 08:00:00;;;;;;;9.82;3.20;;;;;;;25.85;47.71;101530.16;5016285;28;20046;-69
2023/06/16 08:02:26;;;;;;;11.32;2.58;;;;;;;26.59;48.02;101523.44;5015188;28;20072;-69
2023/06/16 08:04:53;;;;;;;11.52;3.08;;;;;;;27.34;46.37;101529.78;5022674;28;20046;-68
2023/06/16 08:07:20;;;;;;;6.65;2.08;;;;;;;27.52;45.40;101516.38;5021148;28;20414;-69
2023/06/16 08:09:47;;;;;;;9.65;2.20;;;;;;;27.78;46.50;101510.28;5026438;28;20495;-69
2023/06/16 08:12:14;;;;;;;5.55;2.10;;;;;;;27.70;45.05;101516.41;5022778;28;20058;-69
2023/06/16 08:14:41;;;;;;;7.70;2.30;;;;;;;27.50;46.14;101515.69;5019610;28;20439;-69
2023/06/16 08:17:07;;;;;;;6.28;2.10;;;;;;;27.57;44.66;101521.31;5025306;28;20140;-69
2023/06/16 08:19:34;;;;;;;6.70;1.98;;;;;;;28.12;44.69;101521.25;5022226;28;20651;-69
2023/06/16 08:22:01;;;;;;;6.80;2.25;;;;;;;28.42;45.88;101519.19;5030264;28;20040;-70
2023/06/16 08:24:28;;;;;;;10.40;2.65;;;;;;;28.46;44.43;101515.16;5028505;28;20068;-69
2023/06/16 08:26:55;;;;;;;7.45;2.30;;;;;;;28.89;43.42;101521.53;5025004;28;20053;-69
2023/06/16 08:29:22;;;;;;;8.13;2.28;;;;;;;28.44;42.75;101510.91;5027457;28;20057;-69
2023/06/16 08:31:48;;;;;;;6.68;2.30;;;;;;;27.40;44.13;101504.13;5029221;28;20053;-69
2023/06/16 08:34:15;;;;;;;9.73;2.38;;;;;;;27.60;43.60;101504.88;5023106;28;20049;-69
2023/06/16 08:36:42;;;;;;;7.38;2.15;;;;;;;27.55;42.85;101517.91;5019779;28;20054;-68
2023/06/16 08:39:09;;;;;;;7.25;2.50;;;;;;;27.86;42.06;101515.75;5020487;28;20507;-69
2023/06/16 08:41:37;;;;;;;6.07;1.90;;;;;;;28.15;42.50;101520.09;5029402;28;20295;-69
2023/06/16 08:44:07;;;;;;;11.05;2.47;;;;;;;27.44;39.83;101500.97;5022898;28;20442;-69
2023/06/16 08:46:35;;;;;;;7.55;2.53;;;;;;;27.14;40.71;101507.47;5030280;28;20530;-68
2023/06/16 08:49:05;;;;;;;9.00;2.58;;;;;;;26.60;41.64;101514.38;5029662;28;20086;-68
2023/06/16 08:51:33;;;;;;;9.98;2.63;;;;;;;26.93;40.87;101512.22;5030271;28;20053;-69
2023/06/16 08:54:06;;;;;;;7.65;2.22;;;;;;;27.00;40.17;101513.31;5029507;28;20578;-69
2023/06/16 08:56:33;;;;;;;;;;;;;;;27.47;39.14;101516.00;5029754;28;20049;-69
2023/06/16 08:59:01;;;;;;;11.50;2.70;;;;;;;27.48;39.47;101506.06;5030194;28;20035;-69
2023/06/16 09:01:29;;;;;;;6.95;2.35;;;;;;;27.12;40.33;101509.47;5030233;28;20045;-69
2023/06/16 09:03:56;;;;;;;7.90;2.83;;;;;;;27.23;39.12;101498.53;5029087;28;20137;-68
2023/06/16 09:06:25;;;;;;;12.25;2.45;;;;;;;27.41;40.57;101498.63;5029943;28;20049;-68
2023/06/16 09:08:54;;;;;;;7.68;2.17;;;;;;;27.51;40.72;101505.78;5029988;28;20060;-68
2023/06/16 09:11:23;;;;;;;6.43;2.08;;;;;;;27.59;39.52;101503.19;5017309;28;20141;-68
2023/06/16 09:13:52;;;;;;;7.38;2.70;;;;;;;27.30;39.83;101500.66;5026986;28;20049;-68
2023/06/16 09:16:21;;;;;;;7.93;2.13;;;;;;;26.95;40.09;101494.97;5028199;28;20092;-69
2023/06/16 09:18:49;;;;;;;7.53;2.40;;;;;;;26.58;40.75;101489.50;5029775;28;20049;-69
2023/06/16 09:21:24;;;;;;;8.85;2.22;;;;;;;26.87;40.15;101501.06;5028061;28;20049;-69
2023/06/16 09:23:58;;;;;;;7.30;2.00;;;;;;;26.79;40.19;101481.28;5023965;28;20084;-69
2023/06/16 09:26:30;;;;;;;13.60;2.30;;;;;;;27.06;40.44;101488.56;5022363;28;20136;-68
2023/06/16 09:28:57;;;;;;;6.45;2.28;;;;;;;27.12;39.88;101495.19;5033308;28;20058;-68
2023/06/16 09:31:27;;;;;;;11.80;2.42;;;;;;;27.32;40.19;101498.66;5029304;28;20136;-68
2023/06/16 09:34:03;;;;;;;9.05;2.38;;;;;;;27.39;40.58;101491.69;5028591;28;20521;-68
2023/06/16 09:36:30;;;;;;;7.18;2.33;;;;;;;27.68;41.11;101479.94;5025595;28;20049;-68
2023/06/16 09:38:57;;;;;;;7.80;2.28;;;;;;;28.05;40.04;101481.63;5027728;28;20045;-68
2023/06/16 09:41:24;;;;;;;8.15;2.20;;;;;;;27.39;40.03;101494.38;5027345;28;20132;-69
2023/06/16 09:43:51;;;;;;;11.07;2.50;;;;;;;26.98;39.94;101491.13;5028375;28;20402;-69
2023/06/16 09:46:18;;;;;;;12.13;2.60;;;;;;;26.73;40.00;101482.72;5030863;28;20128;-69
2023/06/16 09:48:47;;;;;;;7.63;2.40;;;;;;;26.29;40.72;101485.88;5023835;28;20057;-68
2023/06/16 09:51:19;;;;;;;10.40;2.58;;;;;;;26.90;39.90;101487.34;5026189;28;20045;-68
2023/06/16 09:53:48;;;;;;;9.55;2.80;;;;;;;26.21;41.75;101471.47;5023455;28;20119;-68
2023/06/16 09:56:18;;;;;;;5.85;2.25;;;;;;;26.64;41.21;101489.78;5029676;28;20443;-67
2023/06/16 09:58:46;;;;;;;10.10;3.08;;;;;;;26.89;40.39;101482.94;5032399;28;20053;-68
2023/06/16 10:01:15;;;;;;;11.23;2.60;;;;;;;26.28;39.55;101494.06;5032294;28;20045;-69
2023/06/16 10:03:47;;;;;;;8.85;2.08;;;;;;;26.25;40.57;101486.28;5031892;28;20068;-69
2023/06/16 10:06:18;;;;;;;11.30;2.33;;;;;;;26.70;39.99;101483.88;5028324;28;20054;-68
2023/06/16 10:08:47;;;;;;;9.25;2.55;;;;;;;26.48;40.60;101493.03;5028895;28;20469;-68
2023/06/16 10:11:16;;;;;;;6.75;2.28;;;;;;;26.72;40.80;101486.41;5022974;28;20137;-68
2023/06/16 10:13:50;;;;;;;10.63;2.25;;;;;;;27.14;39.74;101485.13;5027876;28;20837;-69
2023/06/16 10:16:21;;;;;;;9.73;2.30;;;;;;;26.29;39.32;101488.56;5016935;28;20054;-69
2023/06/16 10:18:49;;;;;;;8.63;2.40;;;;;;;26.30;39.74;101478.66;5027797;28;20077;-68
2023/06/16 10:21:18;;;;;;;7.50;1.90;;;;;;;26.03;41.54;101482.91;5029773;28;20046;-68
2023/06/16 10:23:45;;;;;;;5.65;2.05;;;;;;;26.03;40.43;101471.31;5030924;28;20064;-68
2023/06/16 10:26:13;;;;;;;5.00;1.77;;;;;;;26.44;41.47;101464.81;5029361;28;20139;-68
2023/06/16 10:28:42;;;;;;;7.32;2.45;;;;;;;26.07;39.81;101478.94;5040355;28;20124;-68
2023/06/16 10:31:11;;;;;;;6.20;1.95;;;;;;;25.44;41.20;101486.44;5018962;28;20060;-68
2023/06/16 10:33:58;;;;;;;7.45;1.90;;;;;;;25.95;41.03;101480.06;5032248;28;20122;-68
2023/06/16 10:36:33;;;;;;;7.22;2.10;;;;;;;26.29;39.83;101469.78;5025387;28;20398;-68
2023/06/16 10:39:15;;;;;;;7.22;2.13;;;;;;;26.45;41.06;101479.91;5033510;28;20054;-68
2023/06/16 10:41:59;;;;;;;5.20;1.55;;;;;;;26.41;39.74;101465.06;5035424;28;20052;-68
2023/06/16 10:44:31;;;;;;;5.80;1.95;;;;;;;26.13;39.76;101467.66;5032115;28;20064;-68
2023/06/16 10:47:10;;;;;;;6.32;2.00;;;;;;;26.36;40.26;101474.56;5031076;28;20052;-68
2023/06/16 10:49:43;;;;;;;7.70;2.10;;;;;;;25.81;40.41;101467.03;5031394;28;20084;-68
2023/06/16 10:52:09;;;;;;;9.13;1.90;;;;;;;25.72;41.20;101469.56;5034064;28;20390;-68
2023/06/16 10:54:44;;;;;;;9.93;2.10;;;;;;;25.61;41.53;101471.53;5030695;28;20088;-68
2023/06/16 10:57:12;;;;;;;6.85;1.88;;;;;;;25.74;41.34;101464.91;5020392;28;20054;-68
2023/06/16 11:00:10;;;;;;;8.75;2.05;;;;;;;25.66;40.47;101464.78;5031811;28;20057;-67
2023/06/16 11:02:47;;;;;;;7.03;1.95;;;;;;;25.95;40.38;101458.59;5024422;28;20073;-69
2023/06/16 11:05:15;;;;;;;7.15;1.88;;;;;;;26.38;40.68;101462.69;5043974;28;20049;-69
2023/06/16 11:07:43;;;;;;;4.88;1.75;;;;;;;26.45;40.42;101466.47;5031252;28;20164;-68
2023/06/16 11:10:16;;;;;;;5.57;1.60;;;;;;;26.24;39.15;101468.47;5030901;28;20057;-68
2023/06/16 11:12:44;;;;;;;5.80;2.03;;;;;;;25.99;39.59;101460.00;5029454;28;20060;-68
2023/06/16 11:15:16;;;;;;;8.25;2.10;;;;;;;25.54;41.42;101464.03;5031198;28;20119;-68
2023/06/16 11:17:47;;;;;;;7.32;2.03;;;;;;;25.55;40.76;101449.66;5017653;28;20507;-67
2023/06/16 11:20:16;;;;;;;11.07;2.15;;;;;;;25.84;41.70;101459.56;5028786;28;20462;-68
2023/06/16 11:22:43;;;;;;;7.82;2.15;;;;;;;25.65;41.93;101452.34;5028001;28;20034;-68
2023/06/16 11:25:10;;;;;;;8.80;2.35;;;;;;;25.56;42.47;101456.69;5030631;28;20574;-68
2023/06/16 11:27:38;;;;;;;13.07;2.17;;;;;;;25.66;42.60;101462.09;5033020;28;20538;-68